PWSweather.com
Personal Weather Stations
Station Observations
UISISLE1
Newport, Isle ofWight, ISLE OF WIGHT PO30 2JX

NewportIsle ofWight, ISLE OF WIGHT PO30 2JX

Lat: 50.72, Lon: -1.27

Elevation: 45

Station Type: Davis Vantage Pro Plus

http://www.isleofwightweather.co.uk

Latest ConditionsUpdated 8:45:00 PM GMT Monday, Sep 23, 2019
Currently Today's Max Today's Min Today's Average
Temperature 61.5°F16.4°C 65.2°F18.4°C 53.8°F12.1°C 60.0°F15.6°C
Dew Point 60.3°F15.7°C 60.3°F15.7°C 50.7°F10.4°C 56.8°F13.8°C
Winds 3.5 mph SW5.6 kmh SW 9.2 mph -14.8 kmh - - 3.5 mph 5.6 kmh
Wind Gusts 8.1 mph13.0 kmh 19.6 mph31.5 kmh - -
Humidity 96% 96% 77% 89%
Pressure 29.77 in1008.1 mb 29.88 in1011.9 mb 29.75 in1007.5 mb -
Precipitation - 0.36 in9.1 mm - -
Hour Temp Dew Point Humidity Winds Wind Gusts Pressure Precip Precip Rate Daily Precip Total
08:45 PM 61.5°F16.4°C 60.3°F15.7°C 96% 3.5 mph SW5.6 kmh SW 8.1 mph13.0 kmh 29.77 in1008.1 mb - 0.02 in0.5 mm 0.36 in9.1 mm
08:30 PM 61.5°F16.4°C 60.3°F15.7°C 96% 5.8 mph SW9.3 kmh SW 8.1 mph13.0 kmh 29.77 in1008.1 mb - 0.02 in0.5 mm 0.35 in8.9 mm
08:15 PM 61.4°F16.3°C 60.2°F15.7°C 96% 3.5 mph SW5.6 kmh SW 10.4 mph16.7 kmh 29.77 in1008.1 mb - 0.01 in0.3 mm 0.35 in8.9 mm
08:00 PM 61.3°F16.3°C 59.9°F15.5°C 95% 5.8 mph SSW9.3 kmh SSW 18.4 mph29.6 kmh 29.78 in1008.5 mb - 0.02 in0.5 mm 0.35 in8.9 mm
07:45 PM 61.2°F16.2°C 59.7°F15.4°C 95% 4.6 mph SSW7.4 kmh SSW 8.1 mph13.0 kmh 29.78 in1008.5 mb - 0.02 in0.5 mm 0.34 in8.6 mm
07:30 PM 61.0°F16.1°C 59.6°F15.3°C 95% 6.9 mph SW11.1 kmh SW 13.8 mph22.2 kmh 29.78 in1008.5 mb - 0.02 in0.5 mm 0.34 in8.6 mm
07:15 PM 60.8°F16.0°C 59.4°F15.2°C 95% 6.9 mph SSW11.1 kmh SSW 17.3 mph27.8 kmh 29.77 in1008.1 mb - 0.03 in0.8 mm 0.34 in8.6 mm
07:00 PM 60.7°F15.9°C 59.3°F15.2°C 95% 3.5 mph SSW5.6 kmh SSW 11.5 mph18.5 kmh 29.78 in1008.5 mb - 0.03 in0.8 mm 0.33 in8.4 mm
06:45 PM 60.6°F15.9°C 59.1°F15.1°C 95% 5.8 mph SW9.3 kmh SW 13.8 mph22.2 kmh 29.78 in1008.5 mb - 0.03 in0.8 mm 0.32 in8.1 mm
06:30 PM 60.4°F15.8°C 59.0°F15.0°C 95% 3.5 mph SSW5.6 kmh SSW 8.1 mph13.0 kmh 29.78 in1008.5 mb - 0.04 in1.0 mm 0.32 in8.1 mm
06:15 PM 60.3°F15.7°C 58.9°F14.9°C 95% 9.2 mph SSW14.8 kmh SSW 17.3 mph27.8 kmh 29.78 in1008.5 mb - 0.05 in1.3 mm 0.31 in7.9 mm
06:00 PM 60.3°F15.7°C 58.6°F14.8°C 94% 5.8 mph SW9.3 kmh SW 10.4 mph16.7 kmh 29.78 in1008.5 mb - 0.07 in1.8 mm 0.30 in7.6 mm
05:45 PM 60.4°F15.8°C 58.7°F14.8°C 94% 4.6 mph S7.4 kmh S 10.4 mph16.7 kmh 29.78 in1008.5 mb - 0.11 in2.8 mm 0.29 in7.4 mm
05:30 PM 60.4°F15.8°C 58.6°F14.8°C 94% 5.8 mph S9.3 kmh S 10.4 mph16.7 kmh 29.78 in1008.5 mb - 0.12 in3.0 mm 0.28 in7.1 mm
05:15 PM 60.3°F15.7°C 58.3°F14.6°C 93% 2.3 mph S3.7 kmh S 9.2 mph14.8 kmh 29.79 in1008.8 mb - 0.13 in3.3 mm 0.26 in6.6 mm
05:00 PM 60.4°F15.8°C 58.3°F14.6°C 93% 1.2 mph S1.9 kmh S 5.8 mph9.3 kmh 29.79 in1008.8 mb - 0.11 in2.8 mm 0.23 in5.8 mm
04:45 PM 60.5°F15.8°C 58.5°F14.7°C 93% 3.5 mph S5.6 kmh S 6.9 mph11.1 kmh 29.80 in1009.1 mb - 0.06 in1.5 mm 0.18 in4.6 mm
04:30 PM 60.6°F15.9°C 58.6°F14.8°C 93% 2.3 mph W3.7 kmh W 4.6 mph7.4 kmh 29.80 in1009.1 mb - 0.04 in1.0 mm 0.16 in4.1 mm
04:15 PM 60.5°F15.8°C 58.2°F14.6°C 92% 3.5 mph S5.6 kmh S 9.2 mph14.8 kmh 29.80 in1009.1 mb - 0.02 in0.5 mm 0.13 in3.3 mm
04:00 PM 60.6°F15.9°C 58.3°F14.6°C 92% Calm Calm 4.6 mph7.4 kmh 29.81 in1009.5 mb - 0.01 in0.3 mm 0.12 in3.0 mm
03:45 PM 60.6°F15.9°C 58.2°F14.6°C 92% 2.3 mph S3.7 kmh S 5.8 mph9.3 kmh 29.81 in1009.5 mb - 0.01 in0.3 mm 0.12 in3.0 mm
03:30 PM 60.7°F15.9°C 58.4°F14.7°C 92% 2.3 mph S3.7 kmh S 8.1 mph13.0 kmh 29.82 in1009.8 mb - 0.02 in0.5 mm 0.12 in3.0 mm
03:15 PM 61.0°F16.1°C 58.7°F14.8°C 92% 4.6 mph S7.4 kmh S 11.5 mph18.5 kmh 29.82 in1009.8 mb - 0.03 in0.8 mm 0.11 in2.8 mm
03:00 PM 60.8°F16.0°C 58.2°F14.6°C 91% 2.3 mph S3.7 kmh S 8.1 mph13.0 kmh 29.83 in1010.2 mb - 0.05 in1.3 mm 0.11 in2.8 mm
02:45 PM 60.8°F16.0°C 58.2°F14.6°C 91% 3.5 mph S5.6 kmh S 8.1 mph13.0 kmh 29.84 in1010.5 mb - 0.06 in1.5 mm 0.11 in2.8 mm
02:30 PM 61.2°F16.2°C 58.2°F14.6°C 90% 8.1 mph SSW13.0 kmh SSW 19.6 mph31.5 kmh 29.84 in1010.5 mb - 0.06 in1.5 mm 0.09 in2.3 mm
02:15 PM 61.3°F16.3°C 57.7°F14.3°C 88% 1.2 mph SSW1.9 kmh SSW 10.4 mph16.7 kmh 29.84 in1010.5 mb - 0.06 in1.5 mm 0.08 in2.0 mm
02:00 PM 61.9°F16.6°C 58.3°F14.6°C 88% 3.5 mph S5.6 kmh S 8.1 mph13.0 kmh 29.85 in1010.8 mb - 0.05 in1.3 mm 0.06 in1.5 mm
01:45 PM 62.2°F16.8°C 58.0°F14.4°C 86% 1.2 mph S1.9 kmh S 2.3 mph3.7 kmh 29.85 in1010.8 mb - 0.03 in0.8 mm 0.05 in1.3 mm
01:30 PM 62.7°F17.1°C 58.1°F14.5°C 85% 4.6 mph SW7.4 kmh SW 6.9 mph11.1 kmh 29.85 in1010.8 mb - 0.02 in0.5 mm 0.03 in0.8 mm
01:15 PM 63.3°F17.4°C 58.1°F14.5°C 83% 5.8 mph SSW9.3 kmh SSW 9.2 mph14.8 kmh 29.86 in1011.2 mb - 0.00 in0.0 mm 0.02 in0.5 mm
01:00 PM 63.7°F17.6°C 58.1°F14.5°C 82% 5.8 mph SSW9.3 kmh SSW 11.5 mph18.5 kmh 29.86 in1011.2 mb - 0.00 in0.0 mm 0.02 in0.5 mm
12:45 PM 64.1°F17.8°C 58.1°F14.5°C 81% 6.9 mph SW11.1 kmh SW 5.8 mph9.3 kmh 29.86 in1011.2 mb - 0.00 in0.0 mm 0.02 in0.5 mm
12:30 PM 64.5°F18.1°C 58.9°F14.9°C 82% 5.8 mph SSW9.3 kmh SSW 9.2 mph14.8 kmh 29.86 in1011.2 mb - 0.00 in0.0 mm 0.02 in0.5 mm
12:15 PM 64.5°F18.1°C 58.2°F14.6°C 80% 5.8 mph SW9.3 kmh SW 10.4 mph16.7 kmh 29.86 in1011.2 mb - 0.00 in0.0 mm 0.02 in0.5 mm
12:00 PM 64.8°F18.2°C 58.8°F14.9°C 81% 5.8 mph S9.3 kmh S 8.1 mph13.0 kmh 29.86 in1011.2 mb - 0.01 in0.3 mm 0.02 in0.5 mm
11:45 AM 65.0°F18.3°C 59.0°F15.0°C 81% 3.5 mph SW5.6 kmh SW 6.9 mph11.1 kmh 29.86 in1011.2 mb - 0.01 in0.3 mm 0.02 in0.5 mm
11:30 AM 65.1°F18.4°C 59.1°F15.1°C 81% 8.1 mph SW13.0 kmh SW 11.5 mph18.5 kmh 29.86 in1011.2 mb - 0.01 in0.3 mm 0.02 in0.5 mm
11:15 AM 65.2°F18.4°C 59.6°F15.3°C 82% 9.2 mph SW14.8 kmh SW 15.0 mph24.1 kmh 29.86 in1011.2 mb - 0.01 in0.3 mm 0.02 in0.5 mm
11:00 AM 65.2°F18.4°C 58.5°F14.7°C 79% 6.9 mph SSW11.1 kmh SSW 10.4 mph16.7 kmh 29.86 in1011.2 mb - 0.00 in0.0 mm 0.01 in0.3 mm
10:45 AM 64.9°F18.3°C 58.5°F14.7°C 80% 6.9 mph SW11.1 kmh SW 12.7 mph20.4 kmh 29.87 in1011.5 mb - 0.01 in0.3 mm 0.01 in0.3 mm
10:30 AM 64.4°F18.0°C 58.4°F14.7°C 81% 5.8 mph SSW9.3 kmh SSW 10.4 mph16.7 kmh 29.87 in1011.5 mb - 0.01 in0.3 mm 0.01 in0.3 mm
10:15 AM 64.1°F17.8°C 58.8°F14.9°C 83% 9.2 mph S14.8 kmh S 11.5 mph18.5 kmh 29.87 in1011.5 mb - 0.01 in0.3 mm 0.01 in0.3 mm
10:00 AM 64.5°F18.1°C 59.2°F15.1°C 83% 5.8 mph SW9.3 kmh SW 12.7 mph20.4 kmh 29.87 in1011.5 mb - 0.01 in0.3 mm 0.01 in0.3 mm
09:45 AM 64.6°F18.1°C 57.2°F14.0°C 77% 8.1 mph SW13.0 kmh SW 11.5 mph18.5 kmh 29.88 in1011.9 mb - 0.00 in0.0 mm 0.00 in0.0 mm
09:30 AM 64.4°F18.0°C 57.8°F14.3°C 79% 5.8 mph SW9.3 kmh SW 11.5 mph18.5 kmh 29.88 in1011.9 mb - 0.00 in0.0 mm 0.00 in0.0 mm
09:15 AM 63.9°F17.7°C 57.6°F14.2°C 80% 5.8 mph SW9.3 kmh SW 11.5 mph18.5 kmh 29.88 in1011.9 mb - 0.00 in0.0 mm 0.00 in0.0 mm
09:00 AM 63.8°F17.7°C 58.2°F14.6°C 82% 4.6 mph SW7.4 kmh SW 12.7 mph20.4 kmh 29.88 in1011.9 mb - 0.00 in0.0 mm 0.00 in0.0 mm
08:45 AM 62.7°F17.1°C 58.5°F14.7°C 86% 8.1 mph SW13.0 kmh SW 11.5 mph18.5 kmh 29.87 in1011.5 mb - 0.00 in0.0 mm 0.00 in0.0 mm
08:30 AM 61.2°F16.2°C 57.6°F14.2°C 88% 5.8 mph SSW9.3 kmh SSW 9.2 mph14.8 kmh 29.87 in1011.5 mb - 0.00 in0.0 mm 0.00 in0.0 mm
08:15 AM 59.9°F15.5°C 57.6°F14.2°C 92% 3.5 mph SW5.6 kmh SW 8.1 mph13.0 kmh 29.87 in1011.5 mb - 0.00 in0.0 mm 0.00 in0.0 mm
08:00 AM 58.7°F14.8°C 57.0°F13.9°C 94% 5.8 mph SW9.3 kmh SW 11.5 mph18.5 kmh 29.87 in1011.5 mb - 0.00 in0.0 mm 0.00 in0.0 mm
07:45 AM 57.2°F14.0°C 55.5°F13.1°C 94% 5.8 mph SW9.3 kmh SW 9.2 mph14.8 kmh 29.87 in1011.5 mb - 0.00 in0.0 mm 0.00 in0.0 mm
07:30 AM 55.5°F13.1°C 53.5°F11.9°C 93% Calm Calm -- 29.87 in1011.5 mb - 0.00 in0.0 mm 0.00 in0.0 mm
07:15 AM 54.6°F12.6°C 52.3°F11.3°C 92% Calm Calm -- 29.86 in1011.2 mb - 0.00 in0.0 mm 0.00 in0.0 mm
07:00 AM 54.3°F12.4°C 52.0°F11.1°C 92% Calm Calm -- 29.86 in1011.2 mb - 0.00 in0.0 mm 0.00 in0.0 mm
06:45 AM 54.0°F12.2°C 51.7°F10.9°C 92% Calm Calm -- 29.86 in1011.2 mb - 0.00 in0.0 mm 0.00 in0.0 mm
06:30 AM 53.9°F12.2°C 51.3°F10.7°C 91% Calm Calm -- 29.86 in1011.2 mb - 0.00 in0.0 mm 0.00 in0.0 mm
06:15 AM 53.9°F12.2°C 51.3°F10.7°C 91% Calm Calm -- 29.85 in1010.8 mb - 0.00 in0.0 mm 0.00 in0.0 mm
06:00 AM 53.8°F12.1°C 50.9°F10.5°C 90% Calm Calm -- 29.85 in1010.8 mb - 0.00 in0.0 mm 0.00 in0.0 mm
05:45 AM 53.9°F12.2°C 50.7°F10.4°C 89% Calm Calm -- 29.85 in1010.8 mb - 0.00 in0.0 mm 0.00 in0.0 mm
05:30 AM 54.2°F12.3°C 51.0°F10.6°C 89% Calm Calm -- 29.85 in1010.8 mb - 0.00 in0.0 mm 0.00 in0.0 mm
05:15 AM 54.6°F12.6°C 51.4°F10.8°C 89% Calm Calm -- 29.85 in1010.8 mb - 0.00 in0.0 mm 0.00 in0.0 mm
05:00 AM 55.1°F12.8°C 51.9°F11.1°C 89% Calm Calm -- 29.84 in1010.5 mb - 0.00 in0.0 mm 0.00 in0.0 mm
04:45 AM 55.6°F13.1°C 52.4°F11.3°C 89% Calm Calm -- 29.84 in1010.5 mb - 0.00 in0.0 mm 0.00 in0.0 mm
04:30 AM 56.0°F13.3°C 52.8°F11.6°C 89% Calm Calm -- 29.83 in1010.2 mb - 0.00 in0.0 mm 0.00 in0.0 mm
04:15 AM 56.3°F13.5°C 53.1°F11.7°C 89% Calm Calm -- 29.83 in1010.2 mb - 0.00 in0.0 mm 0.00 in0.0 mm
04:00 AM 56.6°F13.7°C 53.4°F11.9°C 89% 1.2 mph W1.9 kmh W 2.3 mph3.7 kmh 29.83 in1010.2 mb - 0.00 in0.0 mm 0.00 in0.0 mm
03:45 AM 56.8°F13.8°C 53.6°F12.0°C 89% 1.2 mph W1.9 kmh W 4.6 mph7.4 kmh 29.82 in1009.8 mb - 0.00 in0.0 mm 0.00 in0.0 mm
03:30 AM 57.1°F13.9°C 53.9°F12.2°C 89% 1.2 mph W1.9 kmh W 3.5 mph5.6 kmh 29.82 in1009.8 mb - 0.00 in0.0 mm 0.00 in0.0 mm
03:15 AM 57.3°F14.1°C 54.1°F12.3°C 89% 1.2 mph W1.9 kmh W 2.3 mph3.7 kmh 29.82 in1009.8 mb - 0.00 in0.0 mm 0.00 in0.0 mm
03:00 AM 57.5°F14.2°C 54.6°F12.6°C 90% Calm Calm 3.5 mph5.6 kmh 29.82 in1009.8 mb - 0.00 in0.0 mm 0.00 in0.0 mm
02:45 AM 57.8°F14.3°C 54.9°F12.7°C 90% 1.2 mph W1.9 kmh W 6.9 mph11.1 kmh 29.82 in1009.8 mb - 0.00 in0.0 mm 0.00 in0.0 mm
02:30 AM 58.1°F14.5°C 55.5°F13.1°C 91% 3.5 mph W5.6 kmh W 9.2 mph14.8 kmh 29.81 in1009.5 mb - 0.00 in0.0 mm 0.00 in0.0 mm
02:15 AM 58.2°F14.6°C 55.9°F13.3°C 92% 2.3 mph W3.7 kmh W 4.6 mph7.4 kmh 29.80 in1009.1 mb - 0.00 in0.0 mm 0.00 in0.0 mm
02:00 AM 58.3°F14.6°C 56.0°F13.3°C 92% 3.5 mph W5.6 kmh W 6.9 mph11.1 kmh 29.79 in1008.8 mb - 0.00 in0.0 mm 0.00 in0.0 mm
01:45 AM 58.4°F14.7°C 56.1°F13.4°C 92% 2.3 mph WSW3.7 kmh WSW 5.8 mph9.3 kmh 29.79 in1008.8 mb - 0.00 in0.0 mm 0.00 in0.0 mm
01:30 AM 58.3°F14.6°C 56.3°F13.5°C 93% 2.3 mph WSW3.7 kmh WSW 4.6 mph7.4 kmh 29.79 in1008.8 mb - 0.00 in0.0 mm 0.00 in0.0 mm
01:15 AM 58.3°F14.6°C 56.3°F13.5°C 93% 2.3 mph WSW3.7 kmh WSW 4.6 mph7.4 kmh 29.78 in1008.5 mb - 0.00 in0.0 mm 0.00 in0.0 mm
01:00 AM 58.4°F14.7°C 56.1°F13.4°C 92% 2.3 mph W3.7 kmh W 5.8 mph9.3 kmh 29.77 in1008.1 mb - 0.00 in0.0 mm 0.00 in0.0 mm
12:45 AM 58.5°F14.7°C 56.2°F13.4°C 92% 1.2 mph W1.9 kmh W 3.5 mph5.6 kmh 29.77 in1008.1 mb - 0.00 in0.0 mm 0.00 in0.0 mm
12:30 AM 58.5°F14.7°C 56.2°F13.4°C 92% 1.2 mph WSW1.9 kmh WSW 2.3 mph3.7 kmh 29.77 in1008.1 mb - 0.00 in0.0 mm 0.00 in0.0 mm
12:15 AM 58.7°F14.8°C 56.4°F13.6°C 92% 1.2 mph WSW1.9 kmh WSW 3.5 mph5.6 kmh 29.76 in1007.8 mb - 0.00 in0.0 mm 0.00 in0.0 mm
12:00 AM 59.0°F15.0°C 56.7°F13.7°C 92% 2.3 mph W3.7 kmh W 4.6 mph7.4 kmh 29.75 in1007.5 mb - 0.00 in0.0 mm 0.00 in0.0 mm